Time;durP1;ratioP1;P1;durP2;ratioP2;P2;SDS_P1;SDS_P2;PMS_P1;PMS_P2;Temp;Humidity;BMP_temperature;BMP_pressure;BME280_temperature;BME280_humidity;BME280_pressure;Samples;Min_cycle;Max_cycle;Signal;HPM_P1;HPM_P2
2024/03/09 00:00:30;;;;;;;19.63;13.20;;;2.00;79.60;;;1.08;83.50;97033.88;5090265;28;20477;-79
2024/03/09 00:03:00;;;;;;;22.00;13.83;;;2.00;79.80;;;1.10;83.40;97025.72;5057245;28;20548;-80
2024/03/09 00:05:29;;;;;;;20.40;13.47;;;2.00;79.80;;;0.95;83.88;97038.97;5053096;28;20537;-83
2024/03/09 00:08:02;;;;;;;20.67;13.43;;;1.80;79.60;;;0.53;84.51;96980.78;5063583;28;20464;-79
2024/03/09 00:10:31;;;;;;;22.67;13.63;;;1.70;80.30;;;0.84;84.84;97043.72;5047799;28;20544;-78
2024/03/09 00:13:02;;;;;;;21.97;13.03;;;1.60;80.70;;;0.74;85.17;97044.94;5057919;28;20483;-71
2024/03/09 00:15:30;;;;;;;19.60;12.57;;;1.50;81.10;;;0.74;85.30;97048.44;5060865;28;20456;-70
2024/03/09 00:18:00;;;;;;;22.57;14.20;;;1.50;82.10;;;0.81;85.30;97029.94;5063124;28;20510;-81
2024/03/09 00:20:36;;;;;;;21.87;13.33;;;1.50;82.30;;;0.83;85.06;97031.44;5064484;28;20447;-82
2024/03/09 00:23:08;;;;;;;19.43;12.90;;;1.60;82.10;;;0.31;85.58;96965.66;5063433;28;21192;-79
2024/03/09 00:25:37;;;;;;;19.20;13.13;;;1.60;81.30;;;0.52;86.29;97040.25;5063842;28;20806;-78
2024/03/09 00:28:06;;;;;;;20.47;13.67;;;1.40;81.50;;;0.44;86.97;97031.50;5060767;28;20448;-81
2024/03/09 00:30:34;;;;;;;20.00;13.17;;;1.30;82.80;;;0.66;86.50;97035.19;5057785;28;20524;-78
2024/03/09 00:33:05;;;;;;;23.77;14.70;;;1.30;83.50;;;0.69;86.16;97026.88;5062646;28;20505;-73
2024/03/09 00:35:33;;;;;;;20.53;12.97;;;1.40;83.30;;;0.74;86.15;97036.94;5065507;28;20518;-75
2024/03/09 00:38:03;;;;;;;20.40;13.43;;;1.50;83.10;;;0.62;85.96;97028.56;5065002;28;20460;-72
2024/03/09 00:40:32;;;;;;;19.27;13.83;;;1.50;82.70;;;0.63;86.53;97025.75;5060571;28;20471;-79
2024/03/09 00:43:05;;;;;;;21.10;13.80;;;1.50;83.20;;;0.52;86.29;97021.63;5058031;28;20502;-74
2024/03/09 00:45:32;;;;;;;21.40;13.23;;;1.40;82.90;;;0.51;86.82;97013.84;5062379;28;20489;-80
2024/03/09 00:48:00;;;;;;;21.13;13.00;;;1.40;83.10;;;0.58;87.01;97020.09;5062935;28;20456;-72
2024/03/09 00:50:27;;;;;;;24.90;14.17;;;1.40;83.80;;;0.51;86.77;97017.31;5060517;28;20538;-78
2024/03/09 00:52:57;;;;;;;21.37;13.50;;;1.40;83.30;;;0.37;87.79;97018.91;5063532;28;20719;-81
2024/03/09 00:55:25;;;;;;;26.63;14.27;;;1.20;83.30;;;0.46;87.48;97014.38;5063675;28;20479;-77
2024/03/09 00:57:56;;;;;;;23.10;14.60;;;1.20;84.30;;;0.45;87.68;97007.41;5064846;28;20456;-77
2024/03/09 01:00:23;;;;;;;23.67;13.10;;;1.30;84.50;;;0.46;87.71;97000.28;5065180;28;20456;-77
2024/03/09 01:02:52;;;;;;;20.30;12.70;;;1.30;84.40;;;0.47;88.02;96997.44;5051603;28;20465;-80
2024/03/09 01:05:22;;;;;;;22.00;13.70;;;1.30;84.70;;;0.50;87.52;96994.41;5057424;28;20452;-75
2024/03/09 01:07:50;;;;;;;23.40;14.47;;;1.30;84.40;;;0.41;88.00;96990.16;5061082;28;20636;-75
2024/03/09 01:10:17;;;;;;;18.87;13.70;;;1.30;83.90;;;0.45;87.79;96996.78;5060053;28;20501;-81
2024/03/09 01:12:44;;;;;;;21.17;12.83;;;1.30;84.70;;;0.23;88.73;96988.63;5058408;28;20457;-79
2024/03/09 01:15:13;;;;;;;22.00;13.67;;;1.10;84.30;;;0.12;89.81;96981.84;5049184;28;20996;-77
2024/03/09 01:17:41;;;;;;;25.10;14.10;;;1.00;84.90;;;0.23;89.77;96980.66;5062766;28;20535;-75
2024/03/09 01:20:10;;;;;;;20.50;13.70;;;1.00;86.70;;;0.36;89.09;96979.22;5055162;28;20460;-77
2024/03/09 01:22:43;;;;;;;21.40;14.67;;;1.10;87.40;;;0.33;89.05;96958.31;5063377;28;20932;-82
2024/03/09 01:25:11;;;;;;;20.20;13.03;;;1.20;86.80;;;0.43;88.61;96966.91;5059107;28;20513;-82
2024/03/09 01:27:39;;;;;;;21.80;13.83;;;1.30;85.80;;;0.36;88.14;96945.50;5061400;28;20452;-76
2024/03/09 01:30:09;;;;;;;20.83;13.87;;;1.30;85.30;;;0.52;88.14;96965.81;5060771;28;20462;-72
2024/03/09 01:32:40;;;;;;;23.67;13.70;;;1.40;85.10;;;0.53;88.14;96961.34;5058306;28;20626;-81
2024/03/09 01:35:09;;;;;;;21.43;14.10;;;1.40;84.80;;;0.54;88.09;96974.47;5055851;28;20599;-77
2024/03/09 01:37:36;;;;;;;26.37;13.80;;;1.40;84.60;;;0.47;88.43;96952.25;5059096;28;20456;-78
2024/03/09 01:40:04;;;;;;;23.03;14.13;;;1.30;84.80;;;0.50;88.22;96951.06;5064040;28;20452;-81
2024/03/09 01:42:32;;;;;;;19.80;12.77;;;1.40;84.90;;;0.49;88.24;96960.03;5067740;28;20543;-82
2024/03/09 01:45:04;;;;;;;20.83;13.17;;;1.30;84.80;;;0.34;88.98;96967.94;5068603;28;20519;-75
2024/03/09 01:47:32;;;;;;;21.53;14.20;;;1.20;84.30;;;0.25;89.62;96962.69;5067224;28;20479;-80
2024/03/09 01:50:01;;;;;;;18.77;13.90;;;1.10;85.00;;;0.24;89.82;96968.16;5070902;28;20551;-73
2024/03/09 01:52:31;;;;;;;23.90;14.90;;;1.00;86.00;;;0.28;90.04;96970.31;5063337;28;20952;-79
2024/03/09 01:55:03;;;;;;;20.20;13.17;;;1.10;87.50;;;0.08;90.68;96967.25;5062639;28;20454;-78
2024/03/09 01:57:30;;;;;;;20.87;14.90;;;1.00;86.30;;;0.14;90.47;96968.41;5064272;28;20448;-77
2024/03/09 01:59:58;;;;;;;22.47;13.33;;;0.90;87.60;;;0.12;90.50;96965.09;5059177;28;20517;-74
2024/03/09 02:02:27;;;;;;;24.43;15.50;;;1.00;88.20;;;-0.22;90.96;96913.16;5065825;28;20889;-80
2024/03/09 02:04:55;;;;;;;22.10;13.77;;;0.90;87.90;;;0.25;89.99;96961.84;5060928;28;20447;-79
2024/03/09 02:07:24;;;;;;;29.33;16.27;;;1.00;88.40;;;0.26;89.82;96951.06;5060367;28;20491;-75
2024/03/09 02:09:53;;;;;;;25.27;14.47;;;1.10;87.80;;;0.26;90.02;96951.06;5061978;28;20452;-78
2024/03/09 02:12:23;;;;;;;23.00;13.70;;;1.10;87.10;;;0.25;89.79;96946.75;5064315;28;20460;-80
2024/03/09 02:14:50;;;;;;;26.40;14.90;;;1.10;86.60;;;0.23;89.90;96951.41;5059052;28;20764;-77
2024/03/09 02:17:17;;;;;;;30.13;15.23;;;1.10;86.50;;;0.17;89.68;96936.16;5060872;28;20547;-82
2024/03/09 02:19:45;;;;;;;26.13;13.40;;;1.10;86.50;;;0.17;90.31;96930.03;5051583;28;20922;-82
2024/03/09 02:22:16;;;;;;;23.47;15.50;;;1.10;86.70;;;0.14;90.20;96928.56;5063315;28;20468;-80
2024/03/09 02:24:55;;;;;;;22.70;12.87;;;1.10;86.60;;;-0.25;89.81;96869.19;5075451;28;20984;-75
2024/03/09 02:27:25;;;;;;;24.13;13.50;;;1.00;86.40;;;0.04;90.02;96925.28;5064890;28;20593;-78
2024/03/09 02:29:53;;;;;;;24.53;13.67;;;0.90;86.40;;;0.11;90.41;96920.94;5055045;28;20457;-82
2024/03/09 02:32:21;;;;;;;20.40;13.03;;;0.90;87.60;;;0.14;90.29;96923.25;5037061;28;20476;-76
2024/03/09 02:34:49;;;;;;;22.03;13.27;;;1.00;87.40;;;0.11;90.04;96923.59;5060264;28;20472;-80
2024/03/09 02:37:18;;;;;;;21.50;13.90;;;0.90;86.80;;;0.11;90.91;96905.81;5062195;28;20449;-81
2024/03/09 02:39:46;;;;;;;23.03;14.30;;;1.00;87.60;;;0.09;90.60;96913.13;5063620;28;20543;-77
2024/03/09 02:42:15;;;;;;;23.73;13.60;;;0.90;87.30;;;0.06;90.92;96902.03;5054658;28;20464;-70
2024/03/09 02:44:42;;;;;;;28.73;14.43;;;0.90;87.40;;;0.03;90.98;96913.00;5064270;28;20459;-82
2024/03/09 02:47:11;;;;;;;17.20;12.97;;;0.90;87.30;;;-0.04;91.42;96908.41;5061799;28;20946;-76
2024/03/09 02:49:38;;;;;;;21.40;13.07;;;0.80;87.10;;;-0.07;91.39;96911.41;5063934;28;20566;-79
2024/03/09 02:52:06;;;;;;;22.53;13.90;;;0.70;87.90;;;-0.18;91.63;96914.47;5062938;28;20485;-75
2024/03/09 02:54:34;;;;;;;22.80;14.33;;;0.60;88.00;;;-0.14;91.52;96926.38;5052292;28;20470;-81
2024/03/09 02:57:06;;;;;;;22.20;12.87;;;0.60;89.20;;;-0.23;92.48;96924.75;5044011;28;20593;-81
2024/03/09 02:59:35;;;;;;;26.37;14.80;;;0.60;89.10;;;-0.42;92.32;96926.84;5063149;28;20461;-81
2024/03/09 03:02:14;;;;;;;21.00;13.97;;;0.40;89.40;;;-0.26;93.02;96920.66;5063654;28;20468;-83
2024/03/09 03:04:42;;;;;;;19.23;14.20;;;0.50;90.40;;;-0.05;91.97;96914.72;5023517;28;1098165;-82
2024/03/09 03:07:09;;;;;;;20.00;13.80;;;0.70;90.70;;;-0.16;91.88;96899.19;5062412;28;20254;-82
2024/03/09 03:09:36;;;;;;;24.03;14.27;;;0.80;90.10;;;-0.43;91.57;96830.47;5047487;28;20463;-75
2024/03/09 03:12:07;;;;;;;23.60;14.83;;;0.80;89.50;;;0.04;91.30;96909.34;5067929;28;20444;-78
2024/03/09 03:14:39;;;;;;;18.63;13.00;;;0.90;89.10;;;0.06;91.72;96907.34;5070854;28;21137;-77
2024/03/09 03:17:07;;;;;;;19.30;13.10;;;0.90;88.30;;;0.03;91.23;96913.00;5042034;28;20478;-76
2024/03/09 03:19:34;;;;;;;24.80;14.60;;;0.90;87.80;;;0.00;91.42;96898.28;5072376;28;20825;-75
2024/03/09 03:22:01;;;;;;;23.17;14.00;;;0.90;88.40;;;-0.04;91.19;96902.25;5060720;28;20459;-80
2024/03/09 03:24:29;;;;;;;21.03;13.50;;;0.80;88.00;;;-0.05;91.42;96904.09;5058721;28;20479;-80
2024/03/09 03:27:04;;;;;;;23.53;13.80;;;0.90;88.20;;;-0.06;91.25;96898.97;5063703;28;20545;-82
2024/03/09 03:29:32;;;;;;;21.10;13.20;;;0.80;88.20;;;-0.04;91.61;96908.41;5056005;28;20962;-81
2024/03/09 03:32:01;;;;;;;19.67;12.73;;;0.80;88.60;;;-0.05;91.80;96889.97;5060664;28;20513;-78
2024/03/09 03:34:31;;;;;;;21.77;14.23;;;0.80;88.70;;;-0.03;91.67;96899.44;5057194;28;21051;-79
2024/03/09 03:36:58;;;;;;;21.70;14.10;;;0.80;88.30;;;-0.07;91.39;96899.97;5056265;28;20460;-74
2024/03/09 03:39:27;;;;;;;24.37;14.80;;;0.90;88.40;;;-0.04;91.87;96916.38;5063224;28;20456;-76
2024/03/09 03:41:54;;;;;;;20.50;15.20;;;0.80;88.50;;;-0.10;91.99;96902.97;5063757;28;21069;-81
2024/03/09 03:44:21;;;;;;;21.47;13.13;;;0.80;88.30;;;-0.09;92.12;96894.81;5060199;28;20466;-78
2024/03/09 03:46:49;;;;;;;24.00;13.37;;;0.80;88.50;;;-0.13;92.26;96896.16;5055623;28;21093;-77
2024/03/09 03:49:17;;;;;;;24.10;13.30;;;0.80;88.30;;;-0.15;92.17;96899.03;5053469;28;20472;-79
2024/03/09 03:51:45;;;;;;;17.70;12.37;;;0.80;88.30;;;-0.16;91.89;96902.66;5066393;28;20501;-77
2024/03/09 03:54:12;;;;;;;21.30;13.50;;;0.70;88.50;;;-0.50;93.30;96890.56;5056831;28;20452;-79
2024/03/09 03:56:40;;;;;;;22.87;13.67;;;0.50;88.00;;;-0.35;94.15;96909.25;5065929;28;20440;-76
2024/03/09 03:59:09;;;;;;;22.47;14.40;;;0.50;89.70;;;-0.70;92.77;96853.00;5057653;28;20552;-77
2024/03/09 04:01:36;;;;;;;18.30;12.00;;;0.50;90.50;;;-0.25;92.63;96916.16;5063508;28;20467;-79
2024/03/09 04:04:04;;;;;;;18.80;13.47;;;0.60;90.40;;;-0.44;93.99;96918.22;5054983;28;20869;-81
2024/03/09 04:06:34;;;;;;;23.30;14.20;;;0.40;90.00;;;-0.52;94.45;96929.69;5067740;28;20591;-80
2024/03/09 04:09:02;;;;;;;25.07;14.30;;;0.30;90.30;;;-0.63;95.18;96928.25;5054747;28;20525;-81
2024/03/09 04:11:33;;;;;;;21.03;13.33;;;0.20;90.60;;;-0.55;95.56;96921.25;5060936;28;20452;-78
2024/03/09 04:14:01;;;;;;;22.07;13.70;;;0.20;91.40;;;-0.61;95.54;96931.56;5061184;28;21046;-81
2024/03/09 04:16:28;;;;;;;19.80;13.63;;;0.20;91.40;;;-0.51;95.76;96938.50;5062242;28;20463;-82
2024/03/09 04:18:56;;;;;;;20.47;13.93;;;0.20;92.10;;;-0.61;95.37;96939.53;5061057;28;20449;-80
2024/03/09 04:21:23;;;;;;;28.53;14.93;;;0.20;91.90;;;-0.69;96.39;96936.88;5058839;28;20468;-80
2024/03/09 04:23:51;;;;;;;23.00;15.60;;;0.10;92.00;;;-0.69;96.77;96936.88;5058536;28;20512;-83
2024/03/09 04:26:19;;;;;;;21.47;14.20;;;0.20;92.30;;;-0.70;96.91;96940.53;5062726;28;20455;-81
2024/03/09 04:28:46;;;;;;;23.83;14.90;;;0.10;92.60;;;-0.71;97.18;96944.19;5051176;28;20453;-77
2024/03/09 04:31:15;;;;;;;26.10;14.10;;;0.10;92.50;;;-0.68;96.93;96946.53;5062600;28;20455;-76
2024/03/09 04:33:42;;;;;;;23.17;14.63;;;0.10;92.80;;;-0.67;96.22;96923.47;5058005;28;20993;-79
2024/03/09 04:36:11;;;;;;;21.50;13.83;;;0.10;93.50;;;-0.45;95.49;96935.16;5064177;28;20540;-76
2024/03/09 04:38:38;;;;;;;23.80;13.53;;;0.20;93.80;;;-0.32;94.25;96934.59;5054681;28;20841;-79
2024/03/09 04:41:08;;;;;;;32.77;24.30;;;0.30;93.40;;;-0.29;93.62;96943.03;5061760;28;20451;-82
2024/03/09 04:43:38;;;;;;;41.33;28.47;;;0.40;92.50;;;-0.27;93.66;96928.78;5062255;28;20455;-78
2024/03/09 04:46:07;;;;;;;38.20;25.07;;;0.50;91.90;;;-0.32;93.31;96908.88;5063272;28;20457;-78
2024/03/09 04:48:34;;;;;;;24.80;16.57;;;0.50;91.40;;;-0.21;93.77;96923.59;5062083;28;20492;-77
2024/03/09 04:51:04;;;;;;;23.27;16.20;;;0.60;91.00;;;-0.17;93.43;96919.59;5065119;28;20464;-78
2024/03/09 04:53:31;;;;;;;37.63;22.90;;;0.60;90.90;;;-0.36;93.89;96915.56;5061040;28;20459;-76
2024/03/09 04:55:58;;;;;;;21.70;14.33;;;0.50;90.50;;;-0.43;95.34;96914.56;5073676;28;20536;-73
2024/03/09 04:58:27;;;;;;;27.17;17.30;;;0.40;90.70;;;-0.14;93.93;96899.84;5054397;28;20463;-79
2024/03/09 05:00:55;;;;;;;22.47;15.67;;;0.60;91.70;;;-0.02;92.83;96906.41;5057122;28;20544;-77
2024/03/09 05:03:22;;;;;;;24.70;16.13;;;0.70;91.20;;;-0.07;92.91;96903.44;5060422;28;20471;-78
2024/03/09 05:05:49;;;;;;;21.83;14.10;;;0.70;90.60;;;-0.10;92.87;96898.47;5061299;28;20531;-81
2024/03/09 05:08:16;;;;;;;22.90;14.70;;;0.70;90.60;;;-0.16;92.63;96899.19;5053501;28;20932;-76
2024/03/09 05:10:44;;;;;;;23.10;15.10;;;0.70;90.20;;;-0.13;93.02;96895.34;5067598;28;20831;-82
2024/03/09 05:13:11;;;;;;;24.73;15.17;;;0.70;90.20;;;-0.34;93.30;96892.31;5055756;28;20484;-79
2024/03/09 05:15:40;;;;;;;20.63;14.13;;;0.60;89.80;;;-0.42;94.29;96895.00;5083302;28;20456;-80
2024/03/09 05:18:07;;;;;;;24.13;15.13;;;0.40;90.00;;;-0.27;93.58;96895.09;5058075;28;20465;-76
2024/03/09 05:20:35;;;;;;;25.13;16.40;;;0.50;90.80;;;-0.24;93.02;96885.94;5070341;28;20456;-80
2024/03/09 05:23:03;;;;;;;25.97;15.60;;;0.60;90.90;;;-0.29;93.05;96884.66;5064256;28;20459;-76
2024/03/09 05:25:31;;;;;;;25.57;17.33;;;0.50;90.50;;;-0.31;92.74;96888.47;5067244;28;20464;-79
2024/03/09 05:27:59;;;;;;;28.87;17.53;;;0.50;90.10;;;-0.25;92.93;96894.91;5061599;28;20480;-71
2024/03/09 05:30:28;;;;;;;23.50;14.90;;;0.50;90.30;;;-0.40;93.10;96894.84;5046572;28;20509;-80
2024/03/09 05:32:59;;;;;;;22.67;14.47;;;0.40;89.80;;;-0.34;93.37;96894.97;5065962;28;20480;-78
2024/03/09 05:35:28;;;;;;;25.13;15.47;;;0.50;90.30;;;-0.33;93.48;96885.16;5064174;28;20481;-72
2024/03/09 05:37:58;;;;;;;20.30;14.20;;;0.50;90.50;;;-0.58;93.74;96872.84;5082055;28;20526;-80
2024/03/09 05:40:28;;;;;;;22.17;15.10;;;0.40;90.20;;;-0.55;94.37;96884.09;5071436;28;20458;-77
2024/03/09 05:42:56;;;;;;;21.17;13.73;;;0.30;90.50;;;-0.49;94.62;96888.72;5065304;28;20456;-77
2024/03/09 05:45:24;;;;;;;21.17;13.73;;;0.20;91.10;;;-0.64;94.59;96870.03;5067084;28;20513;-76
2024/03/09 05:47:54;;;;;;;25.20;15.17;;;0.20;91.10;;;-0.59;94.90;96879.16;5082827;28;20503;-77
2024/03/09 05:50:28;;;;;;;21.27;14.27;;;0.20;91.40;;;-0.46;95.39;96877.78;5065361;28;20461;-77
2024/03/09 05:52:57;;;;;;;21.47;14.50;;;0.30;92.10;;;-0.35;94.63;96876.53;5061790;28;20521;-80
2024/03/09 05:55:26;;;;;;;20.40;14.83;;;0.40;92.10;;;-0.29;94.20;96866.06;5066397;28;20533;-83
2024/03/09 05:57:56;;;;;;;24.73;15.23;;;0.60;91.70;;;-0.22;94.25;96860.06;5067783;28;20452;-80
2024/03/09 06:00:27;;;;;;;22.23;14.50;;;0.70;91.10;;;-0.11;93.68;96861.50;5055137;28;20554;-74
2024/03/09 06:02:55;;;;;;;23.80;15.10;;;0.80;90.40;;;-0.07;93.54;96863.63;5060247;28;20456;-76
2024/03/09 06:05:28;;;;;;;23.40;15.00;;;0.90;90.00;;;0.03;93.00;96866.03;5061643;28;20466;-81
2024/03/09 06:07:56;;;;;;;22.23;15.33;;;0.90;89.30;;;0.07;92.39;96867.34;5065317;28;20582;-81
2024/03/09 06:10:24;;;;;;;24.90;14.57;;;1.00;88.90;;;0.07;92.89;96863.84;5062564;28;20467;-79
2024/03/09 06:12:52;;;;;;;22.73;14.93;;;1.10;88.30;;;0.15;92.23;96858.47;5067441;28;20516;-80
2024/03/09 06:15:22;;;;;;;22.57;15.43;;;1.10;88.20;;;0.08;92.13;96853.03;5072131;28;20462;-75
2024/03/09 06:17:53;;;;;;;23.57;14.50;;;1.10;87.50;;;0.19;92.08;96864.28;5072270;28;20538;-81
2024/03/09 06:20:26;;;;;;;19.40;13.50;;;1.20;87.60;;;0.26;91.45;96868.69;5068217;28;20533;-78
2024/03/09 06:22:54;;;;;;;22.90;14.73;;;1.20;87.60;;;0.26;91.35;96870.50;5079989;28;21152;-79
2024/03/09 06:25:23;;;;;;;23.93;15.73;;;1.20;87.00;;;0.27;90.99;96873.00;5080873;28;20459;-81
2024/03/09 06:27:51;;;;;;;22.93;13.40;;;1.30;86.50;;;0.35;90.74;96855.31;5061173;28;20885;-79
2024/03/09 06:30:19;;;;;;;22.33;14.30;;;1.30;86.50;;;0.39;90.88;96875.25;5046419;28;20882;-75
2024/03/09 06:32:49;;;;;;;22.23;14.87;;;1.40;86.20;;;0.48;90.41;96883.97;5065851;28;20939;-76
2024/03/09 06:35:19;;;;;;;22.27;14.10;;;1.40;86.50;;;0.52;90.08;96888.72;5064929;28;20539;-74
2024/03/09 06:37:48;;;;;;;24.90;15.13;;;1.40;86.20;;;0.76;89.05;96888.69;5062999;28;20486;-76
2024/03/09 06:40:18;;;;;;;20.37;14.37;;;1.60;85.90;;;0.72;88.85;96890.06;5065578;28;20449;-80
2024/03/09 06:42:46;;;;;;;26.10;14.63;;;1.70;84.90;;;0.74;88.39;96899.53;5055254;28;20517;-76
2024/03/09 06:45:14;;;;;;;19.57;13.63;;;1.70;84.70;;;0.89;88.36;96885.44;5065290;28;20459;-79
2024/03/09 06:47:42;;;;;;;22.13;14.90;;;1.80;84.80;;;1.01;87.15;96883.13;5063073;28;20476;-75
2024/03/09 06:50:13;;;;;;;18.80;13.13;;;1.90;83.80;;;1.06;87.35;96894.88;5064288;28;20467;-76
2024/03/09 06:52:41;;;;;;;21.57;14.47;;;2.00;83.50;;;1.13;86.44;96877.16;5064370;28;20944;-78
2024/03/09 06:55:12;;;;;;;22.07;13.03;;;2.20;83.00;;;1.37;86.08;96899.19;5063184;28;20468;-72
2024/03/09 06:57:40;;;;;;;19.00;13.07;;;2.30;82.80;;;1.57;85.23;96893.31;5079710;28;20460;-80
2024/03/09 07:00:14;;;;;;;20.30;14.07;;;2.50;82.40;;;1.58;84.58;96891.47;5060540;28;20461;-78
2024/03/09 07:02:42;;;;;;;20.40;13.33;;;2.60;81.70;;;1.71;83.51;96899.63;5060967;28;20471;-77
2024/03/09 07:05:10;;;;;;;19.43;12.20;;;2.70;81.50;;;1.94;83.64;96906.66;5056952;28;20460;-79
2024/03/09 07:07:38;;;;;;;18.30;13.30;;;2.80;81.40;;;1.90;83.14;96900.06;5061189;28;20483;-79
2024/03/09 07:10:09;;;;;;;21.50;13.57;;;2.90;80.80;;;2.05;82.36;96884.03;5060486;28;20452;-78
2024/03/09 07:12:40;;;;;;;19.67;13.30;;;3.00;81.00;;;2.37;83.65;96890.69;5060927;28;21181;-71
2024/03/09 07:15:14;;;;;;;17.93;12.90;;;3.20;81.50;;;2.61;82.77;96886.00;5062048;28;20978;-73
2024/03/09 07:17:42;;;;;;;18.03;13.13;;;3.40;80.90;;;2.66;81.26;96896.09;5073524;28;20522;-75
2024/03/09 07:20:16;;;;;;;18.70;13.13;;;3.60;80.20;;;2.68;80.57;96891.38;5072424;28;20462;-72
2024/03/09 07:22:45;;;;;;;18.23;13.30;;;3.60;79.70;;;2.68;80.50;96894.06;5076451;28;20450;-77
2024/03/09 07:25:14;;;;;;;19.83;13.33;;;3.60;79.30;;;2.59;78.70;96900.53;5079215;28;20460;-74
2024/03/09 07:27:43;;;;;;;19.43;12.50;;;3.60;78.50;;;2.60;78.27;96894.16;5055359;28;20486;-72
2024/03/09 07:30:14;;;;;;;18.70;13.07;;;3.60;78.40;;;2.97;78.76;96897.56;5061687;28;20467;-71
2024/03/09 07:32:43;;;;;;;16.90;12.47;;;3.80;79.00;;;2.96;78.26;96898.59;5074841;28;20513;-69
2024/03/09 07:35:16;;;;;;;20.40;13.90;;;3.90;78.50;;;3.02;77.95;96889.78;5061576;28;20507;-69
2024/03/09 07:37:45;;;;;;;19.57;12.27;;;3.90;78.30;;;3.19;77.79;96878.81;5063931;28;21699;-70
2024/03/09 07:40:16;;;;;;;15.60;12.20;;;4.10;78.60;;;3.32;77.17;96878.88;5059590;28;20960;-68
2024/03/09 07:42:45;;;;;;;19.37;12.40;;;4.20;78.00;;;3.14;76.57;96873.22;5060792;28;20452;-71
2024/03/09 07:45:13;;;;;;;15.53;11.67;;;4.20;77.20;;;3.06;76.18;96867.00;5064709;28;20870;-73
2024/03/09 07:47:43;;;;;;;16.83;11.80;;;4.10;77.00;;;3.09;76.48;96866.63;5063404;28;20480;-70
2024/03/09 07:50:14;;;;;;;15.77;11.73;;;4.10;76.90;;;3.30;75.87;96854.22;5052129;28;20456;-71
2024/03/09 07:52:44;;;;;;;17.20;12.83;;;4.10;77.20;;;3.29;75.72;96839.22;5057740;28;20458;-71
2024/03/09 07:55:11;;;;;;;18.10;11.30;;;4.20;76.90;;;3.29;74.99;96841.91;5055305;28;20506;-70
2024/03/09 07:57:40;;;;;;;15.77;11.00;;;4.20;76.30;;;3.45;73.79;96855.94;5061731;28;21188;-70
2024/03/09 08:00:16;;;;;;;17.23;11.70;;;4.30;76.00;;;3.47;73.27;96859.22;5058321;28;20444;-70
2024/03/09 08:02:46;;;;;;;13.60;10.60;;;4.30;75.80;;;3.44;73.91;96873.00;5062640;28;20946;-69
2024/03/09 08:05:15;;;;;;;20.50;11.93;;;4.40;75.60;;;3.88;73.26;96869.06;5058660;28;20975;-70
2024/03/09 08:07:44;;;;;;;15.80;11.30;;;4.60;75.80;;;4.30;71.76;96876.13;5056793;28;20549;-70
2024/03/09 08:10:13;;;;;;;15.07;11.43;;;4.80;75.40;;;4.36;69.88;96857.41;5058670;28;20540;-70
2024/03/09 08:12:41;;;;;;;13.60;11.20;;;5.10;74.70;;;4.16;71.20;96854.72;5059901;28;20789;-70
2024/03/09 08:15:12;;;;;;;14.70;10.73;;;5.10;74.30;;;4.15;70.59;96844.25;5051253;28;20963;-69
2024/03/09 08:17:40;;;;;;;15.30;10.80;;;5.10;73.90;;;4.17;70.75;96859.06;5061660;28;20808;-71
2024/03/09 08:20:09;;;;;;;14.90;10.83;;;5.10;73.80;;;4.31;70.59;96857.22;5077798;28;20467;-70
2024/03/09 08:22:39;;;;;;;13.00;10.37;;;5.10;73.80;;;4.07;70.16;96789.91;5054461;28;20924;-68
2024/03/09 08:25:08;;;;;;;13.10;9.43;;;5.20;73.70;;;4.80;68.70;96844.47;5060450;28;20465;-71
2024/03/09 08:27:38;;;;;;;16.10;10.40;;;5.40;73.30;;;4.79;68.39;96834.81;5062001;28;20456;-69
2024/03/09 08:30:07;;;;;;;13.80;10.30;;;5.50;73.00;;;4.77;67.65;96831.47;5059631;28;20461;-71
2024/03/09 08:32:36;;;;;;;11.97;9.80;;;5.60;72.30;;;5.06;67.05;96826.72;5055570;28;20461;-70
2024/03/09 08:35:06;;;;;;;13.97;10.30;;;5.80;72.10;;;5.33;66.13;96818.59;5060008;28;20874;-69
2024/03/09 08:37:33;;;;;;;12.70;8.00;;;6.10;71.40;;;5.81;64.37;96820.06;5060771;28;20456;-68
2024/03/09 08:40:00;;;;;;;12.63;8.90;;;6.40;70.50;;;5.92;63.78;96810.50;5058306;28;20858;-70
2024/03/09 08:42:31;;;;;;;10.93;8.40;;;6.60;70.00;;;5.82;62.86;96816.34;5053251;28;20839;-69
2024/03/09 08:44:58;;;;;;;11.83;9.40;;;6.60;69.00;;;5.76;63.03;96805.66;5060815;28;20568;-71
2024/03/09 08:47:26;;;;;;;12.80;8.70;;;6.70;68.60;;;5.97;62.13;96817.91;5056139;28;20459;-71
2024/03/09 08:49:55;;;;;;;10.07;8.03;;;6.70;68.20;;;5.73;62.33;96814.13;5060785;28;20585;-71
2024/03/09 08:52:22;;;;;;;12.20;8.97;;;6.60;67.70;;;5.84;62.97;96808.09;5062707;28;20788;-70
2024/03/09 08:54:50;;;;;;;14.13;9.20;;;6.60;67.90;;;6.01;62.38;96811.09;5064698;28;20453;-69
2024/03/09 08:57:17;;;;;;;11.67;7.73;;;6.70;68.20;;;5.86;62.68;96800.66;5067050;28;20449;-70
2024/03/09 08:59:46;;;;;;;9.87;8.17;;;6.60;67.40;;;5.84;62.35;96802.75;5064156;28;20532;-69
2024/03/09 09:02:18;;;;;;;10.60;7.83;;;6.70;67.20;;;5.86;61.88;96789.94;5081233;28;20459;-70
2024/03/09 09:04:46;;;;;;;10.83;8.23;;;6.70;67.10;;;6.01;62.32;96802.22;5064258;28;20453;-69
2024/03/09 09:07:24;;;;;;;8.93;7.90;;;6.80;67.10;;;5.91;62.39;96795.47;5041044;28;20446;-82
2024/03/09 09:09:52;;;;;;;8.67;7.17;;;6.70;66.70;;;5.89;61.89;96799.38;5081990;28;20480;-69
2024/03/09 09:12:19;;;;;;;10.33;7.87;;;6.70;66.50;;;5.87;62.11;96796.09;5064444;28;20445;-70
2024/03/09 09:14:47;;;;;;;12.80;8.70;;;6.70;66.60;;;6.21;61.72;96797.56;5063978;28;20476;-69
2024/03/09 09:17:14;;;;;;;10.63;7.80;;;6.90;66.70;;;6.23;61.09;96797.38;5065232;28;20544;-69
2024/03/09 09:19:42;;;;;;;11.83;9.07;;;6.90;66.40;;;6.27;61.33;96805.78;5058311;28;20621;-70
2024/03/09 09:22:10;;;;;;;11.27;7.67;;;7.00;66.00;;;6.19;60.64;96802.34;5062885;28;20449;-70
2024/03/09 09:24:40;;;;;;;9.67;7.43;;;7.10;65.90;;;6.39;60.61;96798.66;5063553;28;21292;-70
2024/03/09 09:27:09;;;;;;;11.43;8.13;;;7.10;66.20;;;6.45;60.56;96805.03;5064775;28;20464;-70
2024/03/09 09:29:37;;;;;;;10.93;8.47;;;7.20;65.90;;;6.57;60.50;96805.13;5080727;28;20969;-69
2024/03/09 09:32:05;;;;;;;11.67;8.00;;;7.30;65.80;;;6.58;60.43;96796.88;5064309;28;20530;-68
2024/03/09 09:34:32;;;;;;;11.37;8.23;;;7.30;65.50;;;6.57;60.16;96794.41;5064826;28;20459;-70
2024/03/09 09:36:59;;;;;;;11.00;7.90;;;7.40;65.40;;;6.84;59.90;96783.44;5065898;28;20511;-70
2024/03/09 09:39:32;;;;;;;10.67;8.90;;;7.50;65.50;;;7.03;59.41;96787.75;5080340;28;20499;-69
2024/03/09 09:42:01;;;;;;;13.03;9.07;;;7.70;65.30;;;7.03;59.17;96793.13;5062645;28;20861;-69
2024/03/09 09:44:29;;;;;;;10.83;7.33;;;7.80;64.90;;;7.09;58.76;96786.88;5064400;28;20484;-69
2024/03/09 09:46:57;;;;;;;10.97;8.27;;;7.80;64.70;;;7.30;58.68;96781.28;5066244;28;20449;-70
2024/03/09 09:49:26;;;;;;;11.73;8.77;;;7.90;65.00;;;7.31;58.67;96778.38;5059107;28;20883;-69
2024/03/09 09:51:56;;;;;;;11.30;9.27;;;8.00;64.60;;;7.09;59.09;96770.78;5065625;28;20453;-69
2024/03/09 09:54:26;;;;;;;10.23;8.03;;;7.90;64.50;;;7.09;58.97;96767.25;5062401;28;20531;-70
2024/03/09 09:56:55;;;;;;;12.70;8.70;;;7.90;64.30;;;7.21;58.63;96761.97;5061008;28;20541;-69
2024/03/09 09:59:24;;;;;;;9.30;7.70;;;7.90;64.20;;;7.25;58.53;96757.78;5060629;28;20444;-71
2024/03/09 10:01:52;;;;;;;9.43;7.80;;;8.00;64.00;;;7.39;58.14;96752.25;5065232;28;20974;-70
2024/03/09 10:04:20;;;;;;;13.18;10.40;;;8.10;64.20;;;7.62;57.71;96740.78;5063740;28;20453;-70
2024/03/09 10:06:48;;;;;;;8.67;7.70;;;8.20;63.90;;;7.68;57.50;96734.47;5049261;28;20669;-71
2024/03/09 10:09:27;;;;;;;11.03;8.57;;;8.30;63.60;;;7.77;56.98;96733.13;5061042;28;20499;-70
2024/03/09 10:11:55;;;;;;;9.20;7.47;;;8.50;63.20;;;7.91;56.81;96725.66;5064455;28;20456;-71
2024/03/09 10:14:28;;;;;;;11.40;8.13;;;8.60;63.20;;;7.92;56.81;96724.63;5063147;28;20462;-71
2024/03/09 10:16:56;;;;;;;8.30;7.43;;;8.60;63.00;;;8.12;56.35;96712.75;5061855;28;20465;-71
2024/03/09 10:19:25;;;;;;;8.70;7.57;;;8.70;63.10;;;8.05;55.98;96720.09;5062124;28;20974;-74
2024/03/09 10:21:52;;;;;;;9.43;7.87;;;8.80;62.30;;;8.21;55.59;96732.06;5047343;28;20461;-72
2024/03/09 10:24:26;;;;;;;9.47;7.73;;;8.90;62.40;;;8.16;56.31;96730.06;5062117;28;20998;-76